Terminal Aerodrome Forecast
Issued by NWS Boston, MA

Home | Current Version | Previous Version | Text Only | Print | Product List | Glossary On
Versions: 1 2 3 4 5 6 7 8 9 10 11 12 13 14 15 16 17 18 19 20 21
000
FTUS41 KBOX 060535
TAFBDL
TAF
KBDL 060535Z 0606/0712 29005KT P6SM SCT050
     FM061600 02004KT P6SM SCT250
     FM062100 08004KT P6SM BKN250
     FM070000 VRB03KT P6SM VCSH SCT040 OVC080
     FM070300 01004KT P6SM -RASN OVC040
     FM070600 03004KT 2SM -RASN OVC015
     FM071000 VRB03KT 3SM BR VCSH OVC015=

USA.gov is the U.S. government's official web portal to all federal, state and local government web resources and services.